Time;durP1;ratioP1;P1;durP2;ratioP2;P2;SDS_P1;SDS_P2;PMS_P1;PMS_P2;Temp;Humidity;BMP_temperature;BMP_pressure;BME280_temperature;BME280_humidity;BME280_pressure;Samples;Min_cycle;Max_cycle;Signal;HPM_P1;HPM_P2
2022/12/30 00:01:35;;;;;;;2.80;2.30;;;20.00;39.00;;;;;;5054576;28;20055;-68
2022/12/30 00:04:02;;;;;;;2.35;2.15;;;20.00;39.00;;;;;;5054459;28;20594;-70
2022/12/30 00:06:29;;;;;;;2.20;2.00;;;20.00;39.00;;;;;;5054771;28;20085;-69
2022/12/30 00:08:57;;;;;;;2.50;2.30;;;20.00;39.10;;;;;;5054959;28;20136;-69
2022/12/30 00:11:28;;;;;;;2.15;1.95;;;20.00;39.10;;;;;;5055199;28;20049;-69
2022/12/30 00:34:21;;;;;;;3.75;2.50;;;19.90;39.00;;;;;;5054437;28;20128;-69
2022/12/30 00:36:50;;;;;;;1.70;1.58;;;19.90;39.00;;;;;;5054345;28;20091;-69
2022/12/30 00:39:17;;;;;;;2.13;1.92;;;19.90;39.00;;;;;;5054567;28;20048;-69
2022/12/30 00:44:31;;;;;;;2.17;1.98;;;20.00;39.10;;;;;;5053639;28;20539;-68
2022/12/30 00:46:58;;;;;;;1.73;1.63;;;19.90;39.10;;;;;;5054127;28;20052;-68
2022/12/30 00:57:46;;;;;;;2.28;2.08;;;19.90;39.10;;;;;;5053642;28;20148;-68
2022/12/30 01:00:14;;;;;;;2.53;2.00;;;19.90;39.10;;;;;;5053673;28;20136;-69
2022/12/30 01:02:41;;;;;;;2.08;1.88;;;19.90;39.10;;;;;;5053689;28;20049;-68
2022/12/30 01:05:08;;;;;;;1.90;1.70;;;19.90;39.10;;;;;;5053618;28;20111;-68
2022/12/30 01:07:35;;;;;;;1.92;1.60;;;19.90;39.10;;;;;;5053276;28;20408;-68
2022/12/30 01:10:03;;;;;;;2.47;2.28;;;19.90;39.10;;;;;;5054167;28;20378;-68
2022/12/30 01:12:30;;;;;;;1.70;1.55;;;19.90;39.10;;;;;;5053182;28;20481;-68
2022/12/30 01:14:58;;;;;;;1.90;1.67;;;19.90;39.10;;;;;;5053647;28;20044;-68
2022/12/30 01:17:29;;;;;;;2.63;1.73;;;19.90;39.10;;;;;;5053612;28;20084;-68
2022/12/30 01:19:57;;;;;;;1.60;1.50;;;19.90;39.70;;;;;;5053894;28;20076;-68
2022/12/30 01:22:24;;;;;;;1.73;1.60;;;19.90;39.10;;;;;;5053664;28;20056;-68
2022/12/30 01:24:51;;;;;;;2.22;1.92;;;19.90;39.10;;;;;;5053722;28;20055;-68
2022/12/30 01:27:19;;;;;;;2.22;1.90;;;19.90;39.20;;;;;;5053883;28;20045;-68
2022/12/30 01:29:46;;;;;;;2.42;1.90;;;19.90;39.10;;;;;;5053398;28;20132;-68
2022/12/30 01:32:19;;;;;;;2.10;1.83;;;19.90;39.10;;;;;;5053299;28;20520;-68
2022/12/30 01:34:46;;;;;;;2.00;1.80;;;20.00;39.20;;;;;;5053597;28;20087;-68
2022/12/30 01:37:14;;;;;;;2.13;1.92;;;20.00;39.20;;;;;;5053026;28;20053;-68
2022/12/30 01:39:41;;;;;;;2.17;1.98;;;20.00;39.30;;;;;;5053308;28;20049;-68
2022/12/30 01:42:22;;;;;;;1.67;1.58;;;20.00;39.20;;;;;;5053386;28;20059;-68
2022/12/30 01:45:04;;;;;;;2.03;1.65;;;20.00;39.20;;;;;;5053240;28;20128;-69
2022/12/30 01:47:43;;;;;;;1.52;1.35;;;20.00;39.20;;;;;;5035542;28;20087;-68
2022/12/30 01:50:24;;;;;;;1.70;1.60;;;20.00;39.20;;;;;;5053353;28;20057;-68
2022/12/30 01:53:03;;;;;;;2.30;1.90;;;20.00;39.10;;;;;;5053465;28;20693;-68
2022/12/30 01:55:47;;;;;;;1.63;1.52;;;20.00;39.20;;;;;;5052974;28;20045;-68
2022/12/30 01:58:25;;;;;;;1.75;1.63;;;20.00;39.20;;;;;;5053065;28;20084;-68
2022/12/30 02:00:55;;;;;;;1.70;1.60;;;20.00;39.20;;;;;;5053136;28;20060;-68
2022/12/30 02:03:24;;;;;;;2.08;1.80;;;20.00;39.20;;;;;;5052991;28;20045;-70
2022/12/30 02:05:54;;;;;;;1.73;1.50;;;20.00;39.20;;;;;;5055446;28;20463;-69
2022/12/30 02:08:21;;;;;;;1.60;1.50;;;20.00;39.20;;;;;;5059653;28;20041;-68
2022/12/30 02:10:53;;;;;;;1.45;1.35;;;20.00;39.20;;;;;;5059611;28;20049;-68
2022/12/30 02:13:22;;;;;;;1.42;1.33;;;20.00;39.20;;;;;;5058933;28;20052;-68
2022/12/30 02:16:27;;;;;;;1.80;1.30;;;20.00;39.20;;;;;;5059495;28;20556;-69
2022/12/30 02:19:33;;;;;;;1.52;1.42;;;20.00;39.20;;;;;;5042249;28;20065;-68
2022/12/30 02:22:26;;;;;;;1.33;1.23;;;19.90;39.10;;;;;;5059892;28;20379;-68
2022/12/30 02:25:33;;;;;;;1.50;1.40;;;20.00;39.20;;;;;;5058878;28;20414;-68
2022/12/30 02:28:39;;;;;;;1.55;1.45;;;20.00;39.20;;;;;;5048071;28;20123;-68
2022/12/30 02:31:32;;;;;;;1.85;1.27;;;20.00;39.20;;;;;;5058918;28;20128;-68
2022/12/30 02:34:39;;;;;;;1.55;1.45;;;19.90;39.10;;;;;;5059192;28;20045;-68
2022/12/30 02:37:34;;;;;;;1.73;1.63;;;19.90;39.20;;;;;;5047562;28;20416;-68
2022/12/30 02:44:36;;;;;;;2.10;1.60;;;19.90;39.20;;;;;;5059220;28;20045;-68
2022/12/30 02:46:13;;;;;;;2.00;1.42;;;19.90;39.20;;;;;;5059608;28;20131;-69
2022/12/30 02:48:45;;;;;;;1.48;1.35;;;19.90;39.20;;;;;;5041553;28;20049;-69
2022/12/30 02:54:01;;;;;;;1.58;1.48;;;19.90;39.20;;;;;;5059282;28;20053;-69
2022/12/30 02:56:28;;;;;;;1.50;1.40;;;19.90;39.20;;;;;;5059434;28;20045;-69
2022/12/30 03:05:31;;;;;;;1.60;1.50;;;19.90;39.30;;;;;;5058882;28;20107;-69
2022/12/30 03:08:23;;;;;;;1.98;1.67;;;19.90;39.20;;;;;;5058928;28;20045;-69
2022/12/30 03:11:15;;;;;;;1.42;1.30;;;19.90;39.30;;;;;;5041451;28;20051;-68
2022/12/30 03:14:14;;;;;;;1.88;1.27;;;19.90;39.30;;;;;;5058918;28;20091;-68
2022/12/30 03:16:53;;;;;;;0.80;0.80;;;19.90;39.30;;;;;;5043899;28;20123;-68
2022/12/30 03:19:24;;;;;;;1.15;1.05;;;19.90;39.30;;;;;;5054975;28;20496;-68
2022/12/30 03:21:53;;;;;;;1.45;1.35;;;19.90;39.30;;;;;;5055658;28;20048;-68
2022/12/30 03:27:15;;;;;;;1.50;1.40;;;19.90;39.30;;;;;;5055933;28;20055;-68
2022/12/30 03:29:54;;;;;;;1.50;1.40;;;19.90;39.30;;;;;;5055579;28;20048;-68
2022/12/30 03:32:23;;;;;;;1.60;1.50;;;19.90;39.30;;;;;;5038198;28;20045;-68
2022/12/30 03:34:50;;;;;;;1.30;1.20;;;19.90;39.30;;;;;;5055279;28;20382;-68
2022/12/30 03:37:32;;;;;;;1.40;1.30;;;19.90;39.30;;;;;;5055542;28;20060;-68
2022/12/30 03:40:23;;;;;;;1.27;1.00;;;19.90;39.30;;;;;;5055740;28;20385;-68
2022/12/30 03:42:52;;;;;;;1.33;1.20;;;19.90;39.40;;;;;;5055735;28;20057;-68
2022/12/30 03:45:20;;;;;;;2.00;1.30;;;19.90;39.40;;;;;;5055422;28;20049;-68
2022/12/30 03:47:47;;;;;;;1.13;1.05;;;19.90;39.40;;;;;;5055307;28;20128;-69
2022/12/30 03:50:14;;;;;;;1.15;1.13;;;19.90;39.40;;;;;;5055476;28;20053;-68
2022/12/30 03:52:41;;;;;;;1.23;1.20;;;19.90;39.40;;;;;;5055277;28;20051;-69
2022/12/30 03:55:09;;;;;;;1.50;1.40;;;19.90;39.40;;;;;;5037828;28;20041;-68
2022/12/30 03:57:36;;;;;;;1.05;1.02;;;19.90;39.40;;;;;;5055017;28;20052;-69
2022/12/30 04:00:08;;;;;;;1.35;1.33;;;19.90;39.40;;;;;;5055172;28;20052;-68
2022/12/30 04:02:36;;;;;;;1.40;1.30;;;19.90;39.40;;;;;;5055108;28;20558;-69
2022/12/30 04:05:04;;;;;;;1.20;1.10;;;19.90;39.50;;;;;;5055246;28;20088;-69
2022/12/30 04:07:32;;;;;;;1.25;1.15;;;19.90;39.40;;;;;;5055046;28;20095;-68
2022/12/30 04:09:59;;;;;;;1.38;1.27;;;19.90;39.40;;;;;;5054944;28;20405;-68
2022/12/30 04:12:26;;;;;;;1.10;1.00;;;19.90;39.40;;;;;;5054504;28;20049;-68
2022/12/30 04:14:53;;;;;;;1.00;1.00;;;19.90;39.40;;;;;;5055110;28;20123;-68
2022/12/30 04:17:20;;;;;;;1.20;1.10;;;19.90;39.40;;;;;;5037360;28;20135;-68
2022/12/30 04:19:47;;;;;;;1.67;1.20;;;19.90;39.40;;;;;;5037092;28;20523;-68
2022/12/30 04:22:14;;;;;;;1.23;1.13;;;19.90;39.40;;;;;;5054784;28;20071;-69
2022/12/30 04:24:42;;;;;;;1.58;0.93;;;19.90;39.40;;;;;;5054579;28;20049;-69
2022/12/30 04:27:09;;;;;;;1.38;1.13;;;19.90;39.50;;;;;;5054556;28;20071;-69
2022/12/30 04:29:36;;;;;;;1.13;1.02;;;19.90;39.50;;;;;;5053676;28;20049;-69
2022/12/30 04:32:03;;;;;;;1.35;1.25;;;19.90;39.50;;;;;;5054828;28;20088;-69
2022/12/30 04:34:30;;;;;;;1.33;1.23;;;19.90;39.50;;;;;;5054371;28;20129;-69
2022/12/30 04:36:57;;;;;;;1.33;1.20;;;19.90;39.50;;;;;;5054350;28;20051;-69
2022/12/30 04:39:24;;;;;;;1.08;1.05;;;19.90;39.50;;;;;;5054320;28;20059;-69
2022/12/30 04:41:51;;;;;;;1.17;1.08;;;19.90;39.50;;;;;;5054303;28;20045;-69
2022/12/30 04:44:19;;;;;;;1.33;1.10;;;19.90;39.50;;;;;;5054542;28;20053;-69
2022/12/30 04:46:46;;;;;;;0.85;0.85;;;19.90;39.50;;;;;;5054301;28;20045;-69
2022/12/30 04:49:13;;;;;;;1.35;1.25;;;19.90;39.50;;;;;;5054222;28;20492;-69
2022/12/30 04:51:40;;;;;;;1.42;1.23;;;19.90;39.50;;;;;;5054131;28;20057;-69
2022/12/30 04:54:07;;;;;;;1.38;1.25;;;19.90;39.50;;;;;;5054143;28;20049;-69
2022/12/30 04:56:35;;;;;;;1.13;1.10;;;19.90;39.50;;;;;;5036347;28;20095;-68
2022/12/30 04:59:02;;;;;;;1.00;1.00;;;19.80;39.50;;;;;;5053984;28;20052;-69
2022/12/30 05:01:29;;;;;;;1.30;1.20;;;19.80;39.50;;;;;;5053962;28;20087;-69
2022/12/30 05:03:57;;;;;;;1.35;0.82;;;19.80;39.40;;;;;;5054116;28;20049;-70
2022/12/30 05:06:24;;;;;;;1.10;0.98;;;19.80;39.50;;;;;;5054203;28;20067;-69
2022/12/30 05:08:51;;;;;;;0.93;0.93;;;19.80;39.50;;;;;;5053902;28;20045;-69
2022/12/30 05:11:18;;;;;;;1.20;1.08;;;19.80;39.50;;;;;;5053690;28;20067;-69
2022/12/30 05:13:45;;;;;;;1.20;1.10;;;19.80;39.50;;;;;;5053679;28;20091;-68
2022/12/30 05:16:14;;;;;;;1.00;0.90;;;19.80;39.50;;;;;;5053712;28;20055;-69
2022/12/30 05:18:41;;;;;;;1.63;1.10;;;19.80;39.50;;;;;;5053614;28;20497;-69
2022/12/30 05:21:08;;;;;;;0.90;0.85;;;19.80;39.50;;;;;;5053648;28;20073;-68
2022/12/30 05:26:22;;;;;;;1.10;1.00;;;19.80;39.50;;;;;;5038858;28;20128;-69
2022/12/30 05:28:49;;;;;;;1.25;1.15;;;19.80;39.50;;;;;;5053770;28;20132;-69
2022/12/30 05:31:18;;;;;;;1.20;1.10;;;19.80;39.50;;;;;;5053815;28;20080;-69
2022/12/30 05:33:46;;;;;;;3.33;1.08;;;19.80;39.60;;;;;;5073375;28;20052;-69
2022/12/30 05:36:14;;;;;;;1.17;1.15;;;19.80;39.50;;;;;;5073458;28;20158;-69
2022/12/30 05:38:41;;;;;;;1.65;1.05;;;19.80;39.50;;;;;;5073042;28;20496;-69
2022/12/30 05:41:09;;;;;;;2.47;1.33;;;19.80;39.40;;;;;;5073026;28;20051;-71
2022/12/30 05:43:46;;;;;;;0.90;0.90;;;19.80;39.30;;;;;;5073316;28;20048;-69
2022/12/30 05:46:13;;;;;;;1.58;1.17;;;19.80;39.30;;;;;;5073337;28;20075;-69
2022/12/30 05:48:41;;;;;;;1.23;1.05;;;19.80;39.30;;;;;;5073035;28;20051;-69
2022/12/30 05:51:08;;;;;;;2.10;0.95;;;19.80;39.40;;;;;;5072992;28;20147;-68
2022/12/30 05:53:35;;;;;;;0.68;0.68;;;19.80;39.40;;;;;;5073357;28;20403;-68
2022/12/30 05:56:03;;;;;;;1.23;1.00;;;19.80;39.40;;;;;;5073533;28;20044;-69
2022/12/30 05:58:30;;;;;;;1.20;1.10;;;19.80;39.40;;;;;;5073050;28;20071;-69
2022/12/30 06:00:58;;;;;;;1.17;1.08;;;19.80;39.40;;;;;;5073460;28;20068;-69
2022/12/30 06:03:25;;;;;;;1.50;1.40;;;19.90;39.50;;;;;;5073011;28;20048;-68
2022/12/30 06:06:00;;;;;;;1.20;1.17;;;19.90;39.40;;;;;;5073327;28;20378;-69
2022/12/30 06:08:27;;;;;;;0.70;0.70;;;19.90;39.40;;;;;;5073265;28;20471;-69
2022/12/30 06:10:55;;;;;;;1.08;0.60;;;19.90;39.30;;;;;;5072828;28;20132;-69
2022/12/30 06:13:22;;;;;;;0.88;0.88;;;19.90;39.30;;;;;;5058559;28;20111;-68
2022/12/30 06:15:49;;;;;;;0.85;0.85;;;19.90;39.30;;;;;;5052834;28;20041;-70
2022/12/30 06:18:16;;;;;;;1.30;1.20;;;19.90;39.30;;;;;;5052692;28;20052;-69
2022/12/30 06:20:44;;;;;;;1.83;1.40;;;20.00;39.30;;;;;;5052965;28;20048;-69
2022/12/30 06:23:11;;;;;;;2.20;1.45;;;20.00;39.30;;;;;;5053162;28;20053;-69
2022/12/30 06:25:38;;;;;;;0.70;0.70;;;20.00;39.20;;;;;;5052841;28;20080;-69
2022/12/30 06:28:06;;;;;;;1.92;1.27;;;20.00;39.20;;;;;;5052778;28;20059;-70
2022/12/30 06:30:33;;;;;;;1.02;1.02;;;20.00;39.10;;;;;;5052797;28;20076;-69
2022/12/30 06:33:01;;;;;;;0.82;0.80;;;20.10;39.20;;;;;;5052672;28;20080;-69
2022/12/30 06:35:28;;;;;;;1.33;1.00;;;20.10;39.10;;;;;;5053344;28;20394;-69
2022/12/30 06:37:55;;;;;;;0.85;0.85;;;20.10;39.10;;;;;;5068390;28;20079;-69
2022/12/30 06:40:22;;;;;;;1.52;0.85;;;20.10;39.10;;;;;;5059093;28;20127;-69
2022/12/30 06:42:50;;;;;;;1.05;1.00;;;20.10;39.00;;;;;;5071431;28;20067;-69
2022/12/30 06:45:17;;;;;;;2.47;1.30;;;20.10;39.00;;;;;;5072279;28;20047;-69
2022/12/30 06:47:44;;;;;;;2.13;1.17;;;20.10;39.00;;;;;;5073073;28;20078;-69
2022/12/30 06:50:11;;;;;;;1.92;1.38;;;20.10;38.90;;;;;;5072271;28;20041;-69
2022/12/30 06:52:38;;;;;;;1.50;1.38;;;20.20;39.00;;;;;;5072352;28;20051;-69
2022/12/30 06:55:06;;;;;;;1.20;1.10;;;20.10;39.40;;;;;;5073669;28;20048;-69
2022/12/30 06:57:33;;;;;;;1.60;1.05;;;20.20;38.90;;;;;;5075561;28;20106;-69
2022/12/30 07:00:01;;;;;;;1.17;1.05;;;20.20;38.90;;;;;;5073124;28;20044;-69
2022/12/30 07:02:28;;;;;;;1.17;1.08;;;20.20;38.90;;;;;;5065100;28;20049;-69
2022/12/30 07:04:55;;;;;;;1.88;1.40;;;20.20;38.80;;;;;;5074161;28;20079;-69
2022/12/30 07:07:23;;;;;;;1.45;1.08;;;20.20;38.80;;;;;;5061924;28;20051;-69
2022/12/30 07:09:50;;;;;;;2.45;1.10;;;20.20;38.80;;;;;;5072580;28;20072;-69
2022/12/30 07:12:17;;;;;;;1.30;1.20;;;20.30;38.80;;;;;;5073155;28;20143;-69
2022/12/30 07:14:45;;;;;;;1.52;1.35;;;20.20;39.30;;;;;;5064715;28;20140;-69
2022/12/30 07:17:12;;;;;;;1.67;1.25;;;20.20;38.70;;;;;;5071648;28;20045;-69
2022/12/30 07:19:39;;;;;;;1.75;1.40;;;20.30;38.70;;;;;;5074186;28;20408;-69
2022/12/30 07:22:06;;;;;;;2.28;1.35;;;20.20;38.60;;;;;;5075073;28;20052;-69
2022/12/30 07:24:33;;;;;;;1.48;1.38;;;20.30;38.70;;;;;;5075475;28;20052;-69
2022/12/30 07:27:00;;;;;;;1.40;1.30;;;20.30;38.70;;;;;;5074749;28;20048;-69
2022/12/30 07:29:27;;;;;;;2.00;1.15;;;20.30;38.60;;;;;;5068972;28;20492;-69
2022/12/30 07:31:55;;;;;;;1.63;1.40;;;20.30;38.60;;;;;;5039027;28;20139;-69
2022/12/30 07:34:22;;;;;;;1.02;1.02;;;20.30;38.60;;;;;;5072770;28;20091;-69
2022/12/30 07:36:49;;;;;;;2.08;1.20;;;20.40;38.60;;;;;;5052211;28;20068;-69
2022/12/30 07:39:16;;;;;;;2.03;0.98;;;20.40;38.60;;;;;;5070747;28;20153;-70
2022/12/30 07:41:43;;;;;;;2.42;1.40;;;20.40;38.50;;;;;;5061251;28;20500;-69
2022/12/30 07:44:10;;;;;;;1.65;1.27;;;20.40;38.50;;;;;;5070444;28;20048;-69
2022/12/30 07:46:38;;;;;;;2.33;1.73;;;20.40;38.50;;;;;;5064767;28;20127;-69
2022/12/30 07:49:05;;;;;;;1.60;1.38;;;20.40;38.50;;;;;;5069204;28;20131;-69
2022/12/30 07:51:32;;;;;;;1.10;1.00;;;20.50;38.50;;;;;;5068789;28;20059;-69
2022/12/30 07:53:59;;;;;;;1.45;1.35;;;20.50;38.50;;;;;;5050514;28;20048;-69
2022/12/30 07:56:33;;;;;;;2.05;1.60;;;20.50;38.50;;;;;;5065720;28;20401;-69
2022/12/30 07:59:02;;;;;;;1.95;1.33;;;20.50;38.40;;;;;;5064809;28;20127;-68
2022/12/30 08:01:30;;;;;;;2.35;1.55;;;20.50;38.50;;;;;;5054175;28;20049;-69
2022/12/30 08:03:57;;;;;;;1.40;1.30;;;20.50;38.40;;;;;;5070529;28;20090;-69
2022/12/30 08:06:39;;;;;;;1.35;1.13;;;20.50;38.40;;;;;;5063482;28;20123;-69
2022/12/30 08:09:06;;;;;;;2.45;1.30;;;20.60;38.40;;;;;;5060801;28;20049;-69
2022/12/30 08:11:33;;;;;;;2.35;1.33;;;20.60;38.40;;;;;;5064910;28;20749;-68
2022/12/30 08:14:00;;;;;;;2.08;1.55;;;20.60;38.40;;;;;;5066443;28;20052;-68
2022/12/30 08:16:27;;;;;;;1.50;1.38;;;20.60;38.40;;;;;;5071248;28;20051;-69
2022/12/30 08:18:55;;;;;;;1.50;1.40;;;20.60;38.40;;;;;;5062062;28;20051;-69
2022/12/30 08:21:22;;;;;;;1.90;1.27;;;20.70;38.30;;;;;;5064182;28;20432;-69
2022/12/30 08:23:49;;;;;;;2.30;1.60;;;20.70;38.30;;;;;;5042143;28;20045;-69
2022/12/30 08:26:19;;;;;;;1.02;1.00;;;20.70;38.30;;;;;;5070496;28;20231;-69
2022/12/30 08:28:47;;;;;;;1.63;1.40;;;20.60;38.20;;;;;;5073155;28;20056;-69
2022/12/30 08:31:22;;;;;;;1.85;1.70;;;20.70;38.30;;;;;;5075058;28;20131;-69
2022/12/30 08:33:50;;;;;;;4.60;1.63;;;20.70;38.20;;;;;;5060711;28;20053;-69
2022/12/30 08:36:20;;;;;;;2.00;1.42;;;20.70;38.20;;;;;;5054609;28;20048;-69
2022/12/30 08:38:50;;;;;;;1.65;1.20;;;20.70;38.20;;;;;;5063963;28;20055;-69
2022/12/30 08:41:21;;;;;;;2.25;1.70;;;20.80;38.30;;;;;;5073598;28;20576;-68
2022/12/30 08:43:49;;;;;;;1.20;1.10;;;20.80;38.20;;;;;;5071623;28;20051;-69
2022/12/30 08:46:17;;;;;;;1.63;1.30;;;20.80;38.20;;;;;;5073627;28;20053;-69
2022/12/30 08:48:45;;;;;;;1.70;1.23;;;20.80;38.20;;;;;;5074275;28;20044;-69
2022/12/30 08:51:13;;;;;;;1.63;1.52;;;20.80;38.10;;;;;;5072469;28;20049;-69
2022/12/30 08:53:40;;;;;;;1.80;1.48;;;20.80;38.10;;;;;;5071810;28;20049;-69
2022/12/30 08:56:17;;;;;;;1.70;1.60;;;20.80;38.10;;;;;;5067651;28;20052;-69
2022/12/30 08:58:45;;;;;;;2.10;1.70;;;20.90;38.20;;;;;;5048154;28;20044;-69
2022/12/30 09:01:21;;;;;;;3.13;1.45;;;20.90;38.10;;;;;;5064335;28;20041;-69
2022/12/30 09:03:49;;;;;;;1.60;1.50;;;20.90;38.70;;;;;;5051420;28;20405;-69
2022/12/30 09:06:19;;;;;;;1.42;1.30;;;20.90;38.10;;;;;;5078282;28;20412;-69
2022/12/30 09:08:46;;;;;;;2.90;1.52;;;20.90;38.10;;;;;;5065188;28;20055;-69
2022/12/30 09:11:20;;;;;;;1.55;1.45;;;20.90;38.00;;;;;;5070593;28;20519;-69
2022/12/30 09:13:47;;;;;;;1.50;1.30;;;21.00;38.10;;;;;;5056263;28;20290;-69
2022/12/30 09:16:20;;;;;;;1.58;1.45;;;21.00;38.00;;;;;;5073367;28;20045;-69
2022/12/30 09:18:49;;;;;;;2.25;1.40;;;21.00;38.00;;;;;;5053666;28;20049;-69
2022/12/30 09:21:19;;;;;;;2.42;1.83;;;21.00;38.00;;;;;;5051606;28;20076;-69
2022/12/30 09:23:46;;;;;;;1.23;1.13;;;21.10;38.00;;;;;;5062502;28;20092;-69
2022/12/30 09:26:16;;;;;;;1.55;1.33;;;21.00;37.90;;;;;;5053846;28;20386;-69
2022/12/30 09:28:43;;;;;;;2.10;1.40;;;21.10;38.00;;;;;;5035455;28;20067;-69
2022/12/30 09:31:10;;;;;;;1.65;1.55;;;21.10;38.00;;;;;;5058793;28;20128;-69
2022/12/30 09:33:38;;;;;;;1.92;1.73;;;21.10;37.90;;;;;;5063562;28;20056;-70
2022/12/30 09:36:06;;;;;;;1.88;1.60;;;21.10;37.80;;;;;;5063421;28;20120;-69
2022/12/30 09:38:34;;;;;;;2.05;1.60;;;21.20;37.90;;;;;;5061613;28;20044;-69
2022/12/30 09:41:10;;;;;;;1.45;1.30;;;21.20;37.80;;;;;;5063000;28;20054;-69
2022/12/30 09:44:02;;;;;;;2.25;1.60;;;21.20;37.80;;;;;;5062637;28;20128;-67
2022/12/30 09:47:00;;;;;;;1.65;1.38;;;21.30;38.50;;;;;;5066176;28;20058;-66
2022/12/30 09:49:36;;;;;;;4.18;2.05;;;21.20;38.00;;;;;;5067506;28;20060;-67
2022/12/30 09:52:25;;;;;;;2.10;1.63;;;21.20;37.90;;;;;;5062596;28;20084;-72
2022/12/30 09:55:06;;;;;;;1.75;1.23;;;21.30;38.00;;;;;;5049276;28;20078;-71
2022/12/30 09:57:34;;;;;;;;;;;21.30;38.30;;;;;;5069062;28;20416;-70
2022/12/30 10:00:11;;;;;;;2.58;1.38;;;21.30;38.30;;;;;;5060135;28;19920;-71
2022/12/30 10:03:04;;;;;;;3.63;1.60;;;21.30;38.20;;;;;;5061315;28;20127;-71
2022/12/30 10:06:26;;;;;;;4.32;1.77;;;21.30;38.00;;;;;;5049780;28;20045;-71
2022/12/30 10:09:19;;;;;;;2.13;1.60;;;21.40;38.00;;;;;;5061234;28;20566;-71
2022/12/30 10:12:02;;;;;;;3.78;1.77;;;21.40;37.90;;;;;;5061469;28;20135;-71
2022/12/30 10:15:03;;;;;;;4.45;1.70;;;21.40;37.90;;;;;;5061020;28;20052;-70
2022/12/30 10:18:10;;;;;;;2.88;1.67;;;21.40;37.80;;;;;;5066784;28;20400;-70
2022/12/30 10:21:17;;;;;;;2.22;1.65;;;21.40;37.80;;;;;;5069881;28;20044;-70
2022/12/30 10:24:24;;;;;;;2.40;2.20;;;21.50;37.80;;;;;;5072347;28;20053;-71
2022/12/30 10:26:51;;;;;;;2.60;2.20;;;21.50;37.80;;;;;;5074057;28;20506;-71
2022/12/30 10:29:32;;;;;;;2.55;1.92;;;21.50;37.70;;;;;;5075719;28;20048;-70
2022/12/30 10:32:21;;;;;;;2.72;2.50;;;21.50;37.70;;;;;;5076487;28;20135;-70
2022/12/30 10:34:53;;;;;;;3.25;2.17;;;21.50;37.70;;;;;;5076602;28;20049;-71
2022/12/30 10:37:32;;;;;;;2.70;2.17;;;21.60;37.70;;;;;;5077004;28;20049;-70
2022/12/30 10:40:05;;;;;;;2.90;2.30;;;21.60;37.70;;;;;;5076592;28;20131;-70
2022/12/30 10:43:15;;;;;;;3.88;2.45;;;21.60;37.70;;;;;;5076728;28;20488;-70
2022/12/30 10:46:06;;;;;;;2.73;2.33;;;21.60;37.70;;;;;;5042421;28;20131;-70
2022/12/30 10:48:59;;;;;;;1.90;1.80;;;21.60;37.60;;;;;;5045401;28;20099;-70
2022/12/30 10:51:27;;;;;;;3.25;2.55;;;21.70;37.60;;;;;;5076712;28;20048;-70
2022/12/30 10:53:55;;;;;;;3.78;2.63;;;21.70;37.60;;;;;;5076519;28;20048;-70
2022/12/30 10:56:25;;;;;;;3.25;2.47;;;21.70;37.60;;;;;;5058844;28;20049;-70
2022/12/30 10:58:57;;;;;;;4.85;3.08;;;21.70;37.50;;;;;;5058757;28;20048;-70
2022/12/30 11:01:33;;;;;;;2.53;2.33;;;21.80;37.60;;;;;;5076648;28;20072;-70
2022/12/30 11:04:01;;;;;;;2.72;2.53;;;21.70;37.50;;;;;;5076489;28;20478;-70
2022/12/30 11:06:32;;;;;;;2.75;2.22;;;21.80;37.60;;;;;;5075660;28;20049;-70
2022/12/30 11:09:21;;;;;;;3.28;2.10;;;21.80;38.10;;;;;;5075870;28;20053;-70
2022/12/30 11:15:24;;;;;;;2.60;2.22;;;21.90;37.60;;;;;;5075871;28;20083;-70
2022/12/30 11:17:54;;;;;;;2.50;2.30;;;21.90;37.50;;;;;;5075309;28;20051;-71
2022/12/30 11:20:37;;;;;;;2.15;2.00;;;21.90;37.50;;;;;;5075352;28;20481;-70
2022/12/30 11:23:20;;;;;;;5.10;2.40;;;21.90;37.50;;;;;;5059899;28;20040;-70
2022/12/30 11:25:47;;;;;;;3.38;3.00;;;21.90;37.50;;;;;;5075668;28;20123;-70
2022/12/30 11:28:22;;;;;;;2.58;2.38;;;21.90;37.50;;;;;;5074958;28;20049;-70
2022/12/30 11:30:59;;;;;;;4.22;2.40;;;21.90;37.50;;;;;;5075144;28;20048;-70
2022/12/30 11:33:32;;;;;;;3.83;2.70;;;21.90;37.60;;;;;;5075066;28;20044;-70
2022/12/30 11:36:35;;;;;;;3.80;2.78;;;22.00;37.80;;;;;;5058012;28;20400;-71
2022/12/30 11:39:27;;;;;;;4.30;2.72;;;22.00;37.90;;;;;;5074181;28;20044;-70
2022/12/30 11:41:57;;;;;;;4.18;2.65;;;22.00;38.20;;;;;;5057757;28;20049;-70
2022/12/30 11:44:31;;;;;;;4.50;2.72;;;22.00;38.80;;;;;;5057214;28;20041;-70
2022/12/30 11:47:06;;;;;;;5.25;2.50;;;22.00;39.10;;;;;;5075556;28;20048;-71
2022/12/30 11:49:45;;;;;;;3.40;2.30;;;22.00;39.20;;;;;;5075613;28;20048;-70
2022/12/30 11:52:19;;;;;;;2.67;2.45;;;22.00;39.40;;;;;;5057959;28;20045;-70
2022/12/30 11:54:59;;;;;;;6.65;2.53;;;22.00;39.50;;;;;;5057482;28;20059;-71
2022/12/30 11:57:31;;;;;;;3.88;2.58;;;22.00;39.70;;;;;;5074816;28;20044;-71
2022/12/30 12:00:23;;;;;;;5.13;2.20;;;22.10;40.30;;;;;;5075548;28;20280;-69
2022/12/30 12:03:11;;;;;;;4.15;2.50;;;22.10;40.30;;;;;;5074422;28;20124;-69
2022/12/30 12:05:42;;;;;;;3.53;2.80;;;22.10;41.20;;;;;;5074630;28;20558;-68
2022/12/30 12:08:31;;;;;;;2.63;2.30;;;22.10;42.40;;;;;;5075376;28;20059;-68
2022/12/30 12:11:16;;;;;;;3.33;2.20;;;22.10;42.90;;;;;;5073829;28;20210;-68
2022/12/30 12:13:57;;;;;;;3.97;2.15;;;22.10;43.80;;;;;;5054245;28;20527;-68
2022/12/30 12:17:04;;;;;;;2.05;1.92;;;22.10;44.70;;;;;;5054720;28;20060;-68
2022/12/30 12:19:50;;;;;;;3.35;2.20;;;22.20;45.40;;;;;;5054799;28;20051;-68
2022/12/30 12:22:25;;;;;;;3.67;2.60;;;22.20;45.50;;;;;;5054093;28;20048;-68
2022/12/30 12:24:59;;;;;;;4.18;2.60;;;22.20;44.80;;;;;;5020624;28;20049;-68
2022/12/30 12:27:26;;;;;;;3.15;2.08;;;22.10;44.10;;;;;;5054127;28;20136;-67
2022/12/30 12:29:55;;;;;;;6.22;2.25;;;22.10;43.30;;;;;;5054064;28;20405;-67
2022/12/30 12:33:02;;;;;;;3.65;2.08;;;22.20;42.60;;;;;;5054087;28;20049;-68
2022/12/30 12:35:50;;;;;;;3.08;2.30;;;22.10;42.00;;;;;;5053310;28;20455;-67
2022/12/30 12:38:52;;;;;;;3.20;2.22;;;22.10;41.60;;;;;;5053806;28;20051;-68
2022/12/30 12:41:47;;;;;;;6.45;3.03;;;22.10;41.40;;;;;;5053198;28;20049;-68
2022/12/30 12:44:52;;;;;;;4.43;2.40;;;22.10;41.10;;;;;;5039116;28;20053;-68
2022/12/30 12:47:59;;;;;;;3.25;2.00;;;22.10;40.90;;;;;;5035741;28;20088;-68
2022/12/30 12:50:59;;;;;;;3.13;2.13;;;22.10;40.70;;;;;;5058196;28;20049;-68
2022/12/30 12:54:04;;;;;;;2.50;2.10;;;22.10;40.60;;;;;;5053729;28;20091;-68
2022/12/30 12:57:27;;;;;;;3.35;2.30;;;22.10;40.50;;;;;;5066850;28;20045;-67
2022/12/30 13:00:16;;;;;;;5.32;2.33;;;22.10;40.40;;;;;;5074028;28;20087;-67
2022/12/30 13:03:22;;;;;;;3.17;2.45;;;22.10;40.30;;;;;;5073544;28;20123;-67
2022/12/30 13:06:18;;;;;;;4.63;2.13;;;22.10;40.20;;;;;;5073582;28;20060;-68
2022/12/30 13:09:22;;;;;;;3.88;2.50;;;22.10;40.20;;;;;;5074035;28;20052;-67
2022/12/30 13:12:04;;;;;;;2.42;1.73;;;22.10;40.30;;;;;;5074092;28;20076;-67
2022/12/30 13:14:38;;;;;;;2.25;2.05;;;22.10;40.30;;;;;;5056212;28;20067;-68
2022/12/30 13:17:28;;;;;;;2.92;2.22;;;22.10;40.40;;;;;;5073183;28;20845;-67
2022/12/30 13:20:00;;;;;;;2.92;2.03;;;22.10;40.40;;;;;;5039380;28;20048;-67
2022/12/30 13:22:34;;;;;;;2.47;2.28;;;22.10;40.30;;;;;;5073916;28;20045;-68
2022/12/30 13:25:11;;;;;;;7.90;4.47;;;22.10;40.30;;;;;;5055799;28;20052;-67
2022/12/30 13:27:41;;;;;;;4.20;2.20;;;22.10;40.30;;;;;;5073610;28;20079;-67
2022/12/30 13:30:13;;;;;;;4.07;2.50;;;22.10;40.20;;;;;;5073795;28;20052;-68
2022/12/30 13:33:11;;;;;;;2.58;2.00;;;22.10;40.20;;;;;;5073383;28;20135;-67
2022/12/30 13:36:18;;;;;;;3.50;2.33;;;22.10;40.10;;;;;;5073416;28;20091;-67
2022/12/30 13:39:09;;;;;;;2.50;2.13;;;22.10;40.10;;;;;;5073188;28;20378;-68
2022/12/30 13:41:54;;;;;;;4.47;2.50;;;22.00;40.00;;;;;;5073297;28;20059;-67
2022/12/30 13:44:23;;;;;;;3.28;1.77;;;22.10;40.00;;;;;;5073598;28;20087;-68
2022/12/30 13:46:53;;;;;;;3.08;2.22;;;22.00;39.90;;;;;;5073606;28;20056;-67
2022/12/30 13:49:29;;;;;;;2.83;2.00;;;22.00;39.90;;;;;;5073578;28;20059;-68
2022/12/30 13:52:19;;;;;;;1.95;1.85;;;22.00;39.90;;;;;;5073186;28;20364;-67
2022/12/30 13:54:56;;;;;;;2.10;1.90;;;22.00;39.90;;;;;;5073043;28;20467;-68
2022/12/30 13:57:37;;;;;;;3.28;2.47;;;22.00;39.80;;;;;;5073035;28;20045;-68
2022/12/30 14:00:24;;;;;;;;;;;22.00;39.80;;;;;;5073260;28;20052;-67
2022/12/30 14:02:59;;;;;;;2.53;2.20;;;22.00;39.90;;;;;;5058020;28;19927;-67
2022/12/30 14:05:31;;;;;;;2.97;2.30;;;22.00;39.80;;;;;;5073050;28;20416;-68
2022/12/30 14:07:58;;;;;;;3.42;2.28;;;22.00;39.80;;;;;;5073060;28;20048;-68
2022/12/30 14:10:41;;;;;;;3.58;2.50;;;22.00;39.80;;;;;;5073341;28;20106;-67
2022/12/30 14:13:33;;;;;;;4.03;2.35;;;22.00;39.80;;;;;;5072998;28;20480;-67
2022/12/30 14:16:25;;;;;;;3.30;2.75;;;21.90;39.80;;;;;;5073293;28;20053;-68
2022/12/30 14:18:53;;;;;;;3.22;2.22;;;21.90;39.80;;;;;;5072867;28;20484;-68
2022/12/30 14:21:25;;;;;;;2.83;2.28;;;21.90;39.80;;;;;;5072867;28;20048;-69